Terminal Aerodrome Forecast
Issued by NWS Twin Cities, MN

Home | Current Version | Previous Version | Text Only | Print | Product List | Glossary Off
Versions: 1 2 3 4 5 6 7 8 9 10 11 12 13 14 15 16 17 18 19 20 21 22 23 24 25

000
FTUS43 KMPX 141400 AAA
TAFMSP
TAF AMD
KMSP 141451Z 1415/1518 34016G26KT P6SM SCT035 BKN200
     FM142300 33014G20KT P6SM BKN110
     FM150130 33007KT P6SM SCT060
     FM150700 32005KT P6SM SKC=

USA.gov is the U.S. government's official web portal to all federal, state and local government web resources and services.